Soudersburg, Pennsylvania
Current Conditions -  °F | °C
As of 5:53 PM on Thursday 18 Dec 2014 (Local Time) from KLNS Reporting Station
Overcast Overcast  
Wind Chill: 25°   Ceiling: 3000
Heat Index: 34°   Visibility: 10mi
Dew Point: 24°   Wind: 13mph
Humidity: 67%   Direction: 310°NW
Pressure: 30.05"   Gusts: NA
Location:  40.01°N, 76.16°W
Report Text: KLNS 182253Z 31011KT 10SM OVC030 01/M04 A3005 RMK AO2 SLP178 T00111044
Loading
Personal Weather Stations






























Interactive Weather Map New forecast layout! Learn more

10-Day Weather Forecast

Advertisements
Track Severe Weather on mobile